Time;durP1;ratioP1;P1;durP2;ratioP2;P2;SDS_P1;SDS_P2;PMS_P1;PMS_P2;Temp;Humidity;BMP_temperature;BMP_pressure;BME280_temperature;BME280_humidity;BME280_pressure;Samples;Min_cycle;Max_cycle;Signal;HPM_P1;HPM_P2
2022/10/14 00:03:43;;;;;;;18.40;15.60;;;;;;;14.41;100.00;100277.97;10436661;28;20568;-73
2022/10/14 00:08:46;;;;;;;17.45;15.65;;;;;;;14.44;100.00;100280.38;10432752;28;20052;-75
2022/10/14 00:13:47;;;;;;;15.88;14.25;;;;;;;14.43;100.00;100267.94;10416744;28;20070;-74
2022/10/14 00:18:49;;;;;;;18.95;15.50;;;;;;;14.38;100.00;100267.56;10432950;28;20048;-74
2022/10/14 00:23:51;;;;;;;16.63;14.85;;;;;;;14.27;100.00;100257.88;10436037;28;20122;-75
2022/10/14 00:28:52;;;;;;;16.42;14.63;;;;;;;14.21;100.00;100268.34;10439692;28;20056;-74
2022/10/14 00:33:54;;;;;;;16.50;14.88;;;;;;;14.17;100.00;100266.94;10431798;28;20147;-75
2022/10/14 00:38:55;;;;;;;17.42;14.80;;;;;;;14.20;100.00;100278.22;10431453;28;20049;-74
2022/10/14 00:44:13;;;;;;;15.82;14.43;;;;;;;14.31;100.00;100271.81;10443141;28;20053;-73
2022/10/14 00:49:20;;;;;;;16.88;14.23;;;;;;;14.21;100.00;100279.03;10423172;28;20040;-74
2022/10/14 00:54:28;;;;;;;15.82;14.20;;;;;;;14.11;100.00;100277.25;10445400;28;20044;-73
2022/10/14 00:59:31;;;;;;;15.30;13.70;;;;;;;14.12;100.00;100268.19;10426123;28;20427;-74
2022/10/14 01:04:36;;;;;;;14.63;13.13;;;;;;;14.10;100.00;100272.88;10428680;28;20056;-74
2022/10/14 01:10:06;;;;;;;15.70;13.90;;;;;;;13.95;100.00;100268.97;10447488;28;20084;-74
2022/10/14 01:15:35;;;;;;;13.95;12.55;;;;;;;14.07;100.00;100270.50;10423418;28;20537;-75
2022/10/14 01:21:04;;;;;;;14.18;12.68;;;;;;;14.07;100.00;100267.81;10440938;28;20052;-73
2022/10/14 01:26:31;;;;;;;14.50;12.93;;;;;;;14.00;100.00;100256.00;10457359;28;20095;-74
2022/10/14 01:31:37;;;;;;;14.10;12.40;;;;;;;14.06;100.00;100250.06;10467110;28;20049;-73
2022/10/14 01:36:47;;;;;;;15.45;13.35;;;;;;;13.97;100.00;100245.59;10423653;28;20049;-73
2022/10/14 01:41:56;;;;;;;14.98;12.70;;;;;;;14.00;100.00;100239.94;10440979;28;20040;-73
2022/10/14 01:46:59;;;;;;;14.73;12.93;;;;;;;14.02;100.00;100237.13;10389717;28;20547;-73
2022/10/14 01:52:06;;;;;;;13.90;12.50;;;;;;;14.04;100.00;100225.28;10400054;28;20928;-73
2022/10/14 01:57:14;;;;;;;13.68;11.88;;;;;;;14.11;100.00;100229.06;10398479;28;21012;-74
2022/10/14 02:02:17;;;;;;;12.93;11.63;;;;;;;14.00;100.00;100226.56;10403376;28;20056;-75
2022/10/14 02:07:29;;;;;;;17.23;13.45;;;;;;;13.92;100.00;100221.09;10435961;28;20033;-75
2022/10/14 02:12:54;;;;;;;14.30;12.77;;;;;;;14.04;100.00;100214.56;10441987;28;20049;-76
2022/10/14 02:18:01;;;;;;;16.58;12.55;;;;;;;14.03;100.00;100209.38;10483674;28;20128;-75
2022/10/14 02:23:09;;;;;;;14.15;12.65;;;;;;;14.09;100.00;100206.09;10476043;28;20084;-74
2022/10/14 02:28:15;;;;;;;14.27;12.77;;;;;;;14.09;100.00;100198.91;10484360;28;20051;-75
2022/10/14 02:33:19;;;;;;;14.45;11.82;;;;;;;14.12;100.00;100195.09;10482239;28;20042;-75
2022/10/14 02:38:21;;;;;;;;;;;;;;;14.12;100.00;100189.75;10446392;28;20045;-76
2022/10/14 02:43:22;;;;;;;15.27;12.95;;;;;;;14.08;100.00;100181.19;10399274;28;20304;-74
2022/10/14 02:48:23;;;;;;;12.50;11.27;;;;;;;14.13;100.00;100175.38;10439167;28;20113;-74
2022/10/14 02:53:25;;;;;;;18.70;13.70;;;;;;;14.10;100.00;100175.69;10420938;28;20048;-73
2022/10/14 02:58:26;;;;;;;15.23;13.68;;;;;;;13.94;100.00;100160.25;10409569;28;20624;-73
2022/10/14 03:03:27;;;;;;;15.68;13.35;;;;;;;14.02;100.00;100163.03;10430305;28;20063;-74
2022/10/14 03:08:29;;;;;;;14.50;13.20;;;;;;;13.96;100.00;100144.88;10443432;28;20056;-75
2022/10/14 03:13:30;;;;;;;14.38;12.75;;;;;;;14.00;100.00;100154.31;10431564;28;20067;-74
2022/10/14 03:18:32;;;;;;;14.55;12.02;;;;;;;14.04;100.00;100152.19;10423130;28;20065;-74
2022/10/14 03:23:33;;;;;;;16.27;14.10;;;;;;;13.99;100.00;100141.06;10434894;28;20048;-75
2022/10/14 03:28:34;;;;;;;13.95;12.52;;;;;;;14.04;100.00;100147.66;10427390;28;20056;-73
2022/10/14 03:33:36;;;;;;;14.40;12.90;;;;;;;14.12;100.00;100153.09;10438159;28;20083;-74
2022/10/14 03:38:37;;;;;;;15.70;12.98;;;;;;;14.02;100.00;100140.78;10400545;28;20080;-73
2022/10/14 03:43:39;;;;;;;15.35;13.63;;;;;;;14.04;100.00;100145.00;10439292;28;20087;-76
2022/10/14 03:48:40;;;;;;;14.20;12.75;;;;;;;14.11;100.00;100151.44;10438933;28;20053;-75
2022/10/14 03:53:42;;;;;;;14.40;12.38;;;;;;;14.08;100.00;100135.69;10454351;28;20036;-72
2022/10/14 03:58:43;;;;;;;15.20;13.43;;;;;;;14.13;100.00;100136.06;10413737;28;20111;-75
2022/10/14 04:03:45;;;;;;;16.15;13.75;;;;;;;14.07;100.00;100139.34;10402424;28;20045;-74
2022/10/14 04:08:47;;;;;;;17.55;13.38;;;;;;;14.01;100.00;100131.91;10396712;28;20057;-73
2022/10/14 04:13:48;;;;;;;15.57;14.07;;;;;;;14.02;100.00;100138.09;10393999;28;20533;-73
2022/10/14 04:18:49;;;;;;;15.13;13.25;;;;;;;14.03;100.00;100131.75;10397108;28;20057;-73
2022/10/14 04:23:51;;;;;;;13.40;11.98;;;;;;;14.09;100.00;100129.31;10396347;28;20423;-74
2022/10/14 04:28:52;;;;;;;13.60;12.02;;;;;;;14.10;100.00;100139.03;10401242;28;20041;-75
2022/10/14 04:33:53;;;;;;;13.45;12.05;;;;;;;14.06;100.00;100126.94;10398859;28;20048;-75
2022/10/14 04:38:54;;;;;;;14.63;12.13;;;;;;;14.03;100.00;100127.25;10417044;28;20041;-75
2022/10/14 04:43:56;;;;;;;15.38;12.32;;;;;;;14.01;100.00;100123.88;10404533;28;20144;-74
2022/10/14 04:48:57;;;;;;;13.20;11.80;;;;;;;14.05;100.00;100114.56;10390324;28;20053;-74
2022/10/14 04:53:59;;;;;;;16.77;12.35;;;;;;;13.96;100.00;100110.94;10398064;28;20612;-72
2022/10/14 04:59:00;;;;;;;13.95;11.15;;;;;;;14.01;100.00;100113.19;10378728;28;20059;-73
2022/10/14 05:04:02;;;;;;;13.63;11.85;;;;;;;14.03;100.00;100111.19;10379166;28;20088;-73
2022/10/14 05:09:04;;;;;;;13.40;10.23;;;;;;;14.06;100.00;100113.56;10387901;28;20057;-74
2022/10/14 05:14:06;;;;;;;14.50;11.15;;;;;;;14.06;100.00;100097.50;10389517;28;20064;-73
2022/10/14 05:19:07;;;;;;;12.05;10.48;;;;;;;14.04;100.00;100091.47;10385302;28;20057;-72
2022/10/14 05:24:08;;;;;;;12.80;11.52;;;;;;;14.08;100.00;100094.69;10400839;28;20125;-72
2022/10/14 05:29:10;;;;;;;11.98;10.82;;;;;;;13.99;100.00;100093.75;10404154;28;20228;-73
2022/10/14 05:34:11;;;;;;;13.77;11.50;;;;;;;14.08;100.00;100095.53;10403405;28;20776;-74
2022/10/14 05:39:13;;;;;;;13.23;10.95;;;;;;;14.11;100.00;100087.22;10407913;28;20057;-74
2022/10/14 05:44:14;;;;;;;14.45;11.88;;;;;;;14.11;100.00;100092.56;10388544;28;20653;-72
2022/10/14 05:49:16;;;;;;;15.60;11.30;;;;;;;14.08;100.00;100086.66;10387244;28;20045;-73
2022/10/14 05:54:17;;;;;;;11.75;10.57;;;;;;;14.12;100.00;100088.88;10391035;28;20056;-72
2022/10/14 05:59:18;;;;;;;12.52;11.15;;;;;;;14.08;100.00;100082.16;10384435;28;20045;-72
2022/10/14 06:04:20;;;;;;;16.05;12.38;;;;;;;14.15;100.00;100085.88;10392250;28;20053;-74
2022/10/14 06:09:22;;;;;;;13.68;11.73;;;;;;;14.15;100.00;100077.84;10402396;28;20049;-72
2022/10/14 06:14:23;;;;;;;12.35;11.05;;;;;;;14.24;100.00;100086.00;10391880;28;20064;-72
2022/10/14 06:19:24;;;;;;;15.40;11.88;;;;;;;14.29;100.00;100083.69;10383835;28;20633;-72
2022/10/14 06:24:26;;;;;;;13.38;11.30;;;;;;;14.38;100.00;100085.47;10389241;28;20068;-76
2022/10/14 06:29:31;;;;;;;14.45;12.23;;;;;;;14.30;100.00;100074.66;10382764;28;20072;-72
2022/10/14 06:34:33;;;;;;;12.65;10.93;;;;;;;14.38;100.00;100077.44;10382795;28;20052;-72
2022/10/14 06:39:34;;;;;;;13.50;11.75;;;;;;;14.52;100.00;100078.75;10396788;28;20056;-72
2022/10/14 06:44:35;;;;;;;13.90;11.32;;;;;;;14.41;100.00;100071.78;10390733;28;20430;-73
2022/10/14 06:49:37;;;;;;;14.35;11.77;;;;;;;14.45;100.00;100078.50;10382086;28;20060;-72
2022/10/14 06:54:38;;;;;;;12.45;11.15;;;;;;;14.42;100.00;100086.84;10380549;28;20049;-74
2022/10/14 06:59:42;;;;;;;14.00;12.18;;;;;;;14.50;100.00;100092.28;10384447;28;20550;-71
2022/10/14 07:04:44;;;;;;;17.48;12.63;;;;;;;14.46;100.00;100085.53;10376988;28;20049;-71
2022/10/14 07:09:45;;;;;;;12.60;11.30;;;;;;;14.54;100.00;100089.28;10377986;28;20045;-74
2022/10/14 07:14:47;;;;;;;14.18;12.63;;;;;;;14.62;100.00;100078.69;10379985;28;20596;-74
2022/10/14 07:19:48;;;;;;;17.45;12.52;;;;;;;14.59;100.00;100084.31;10376719;28;20064;-72
2022/10/14 07:24:49;;;;;;;13.85;11.85;;;;;;;14.63;100.00;100081.19;10378942;28;20069;-74
2022/10/14 07:29:51;;;;;;;14.15;11.82;;;;;;;14.66;100.00;100069.34;10396933;28;20057;-72
2022/10/14 07:34:52;;;;;;;14.45;12.18;;;;;;;14.68;100.00;100072.69;10403595;28;20338;-71
2022/10/14 07:39:53;;;;;;;14.10;11.93;;;;;;;14.75;100.00;100075.63;10385574;28;20045;-74
2022/10/14 07:44:56;;;;;;;14.02;11.27;;;;;;;14.77;100.00;100076.28;10379691;28;20057;-69
2022/10/14 07:50:00;;;;;;;16.10;13.32;;;;;;;14.82;100.00;100088.22;10375375;28;20049;-71
2022/10/14 07:55:02;;;;;;;;;;;;;;;14.76;100.00;100070.09;10376219;28;20099;-73
2022/10/14 08:00:04;;;;;;;16.48;13.43;;;;;;;14.83;100.00;100071.16;10376569;28;19925;-72
2022/10/14 08:05:06;;;;;;;17.00;14.10;;;;;;;14.76;100.00;100080.81;10378398;28;20045;-72
2022/10/14 08:10:27;;;;;;;19.73;14.48;;;;;;;14.69;100.00;100090.47;10372248;28;20633;-73
2022/10/14 08:15:37;;;;;;;20.58;18.35;;;;;;;14.66;100.00;100083.56;10376752;28;20564;-71
2022/10/14 08:20:38;;;;;;;212.27;163.10;;;;;;;14.67;100.00;100084.44;10379880;28;20049;-72
2022/10/14 08:25:40;;;;;;;22.25;18.70;;;;;;;14.78;100.00;100081.50;10367665;28;20068;-74
2022/10/14 08:30:42;;;;;;;18.90;16.48;;;;;;;14.71;100.00;100071.56;10363719;28;20053;-72
2022/10/14 08:35:43;;;;;;;17.33;15.05;;;;;;;14.91;100.00;100082.94;10384404;28;20049;-72
2022/10/14 08:41:17;;;;;;;19.15;15.20;;;;;;;15.01;100.00;100079.19;10372834;28;20060;-73
2022/10/14 08:46:25;;;;;;;19.00;15.20;;;;;;;15.12;100.00;100053.94;10398873;28;20537;-72
2022/10/14 08:51:29;;;;;;;17.42;15.60;;;;;;;15.32;100.00;100059.91;10422178;28;20049;-72
2022/10/14 08:56:34;;;;;;;16.58;14.88;;;;;;;15.35;100.00;100059.59;10401910;28;20052;-74
2022/10/14 09:01:46;;;;;;;18.70;13.88;;;;;;;15.32;100.00;100070.63;10401965;28;20053;-72
2022/10/14 09:06:49;;;;;;;17.50;13.95;;;;;;;15.24;100.00;100077.78;10421524;28;20262;-72
2022/10/14 09:11:59;;;;;;;18.70;14.13;;;;;;;15.17;100.00;100067.69;10421968;28;21115;-74
2022/10/14 09:17:10;;;;;;;15.13;13.13;;;;;;;15.28;100.00;100057.72;10422076;28;20044;-72
2022/10/14 09:22:14;;;;;;;20.98;14.40;;;;;;;15.34;100.00;100063.31;10404601;28;20094;-71
2022/10/14 09:27:20;;;;;;;13.40;12.02;;;;;;;15.41;100.00;100052.75;10403601;28;20049;-72
2022/10/14 09:32:39;;;;;;;12.40;11.10;;;;;;;15.51;100.00;100049.97;10421663;28;20514;-72
2022/10/14 09:37:41;;;;;;;15.15;11.38;;;;;;;15.50;100.00;100041.06;10390187;28;20053;-74
2022/10/14 09:43:00;;;;;;;16.38;11.95;;;;;;;15.60;100.00;100034.72;10380217;28;20053;-71
2022/10/14 09:48:06;;;;;;;12.23;11.05;;;;;;;15.67;100.00;100019.66;10376189;28;20083;-74
2022/10/14 09:53:26;;;;;;;13.63;10.55;;;;;;;15.70;100.00;100009.47;10379064;28;20053;-72
2022/10/14 09:58:49;;;;;;;13.18;11.40;;;;;;;15.77;99.62;99998.91;10424714;28;20058;-74
2022/10/14 10:03:52;;;;;;;13.48;11.73;;;;;;;15.79;99.30;99988.03;10418423;28;21579;-73
2022/10/14 10:08:54;;;;;;;15.43;12.37;;;;;;;15.92;98.34;99974.16;10423350;28;20053;-73
2022/10/14 10:13:55;;;;;;;15.73;14.15;;;;;;;16.15;96.40;99975.16;10425343;28;20843;-73
2022/10/14 10:19:26;;;;;;;19.33;15.77;;;;;;;16.42;94.37;99982.09;10434706;28;20075;-73
2022/10/14 10:24:27;;;;;;;14.13;12.40;;;;;;;16.86;92.11;99978.19;10411903;28;20072;-73
2022/10/14 10:29:34;;;;;;;24.05;21.48;;;;;;;16.95;89.38;99979.03;10422469;28;20155;-72
2022/10/14 10:34:53;;;;;;;20.40;18.40;;;;;;;16.83;89.59;99967.75;10410901;28;20065;-73
2022/10/14 10:40:08;;;;;;;31.27;28.23;;;;;;;16.71;91.11;99969.09;10405071;28;20415;-73
2022/10/14 10:45:42;;;;;;;13.30;10.15;;;;;;;16.56;91.96;99960.94;10420369;28;20056;-74
2022/10/14 10:50:54;;;;;;;;;;;;;;;16.51;92.80;99964.09;10423292;28;20096;-71
2022/10/14 10:56:10;;;;;;;15.30;13.95;;;;;;;16.37;92.56;99967.47;10437732;28;19927;-74
2022/10/14 11:01:35;;;;;;;14.73;13.00;;;;;;;16.36;93.54;99960.41;10446485;28;20059;-74
2022/10/14 11:12:48;;;;;;;8.18;7.32;;;;;;;16.48;92.81;99942.94;10416587;28;20044;-73
2022/10/14 11:18:07;;;;;;;8.15;7.28;;;;;;;16.38;91.82;99936.94;10409783;28;20044;-72
2022/10/14 11:23:22;;;;;;;8.73;7.88;;;;;;;16.42;92.54;99943.63;10419725;28;20647;-74
2022/10/14 11:28:45;;;;;;;8.73;7.82;;;;;;;16.35;93.46;99913.06;10417738;28;20040;-72
2022/10/14 11:34:02;;;;;;;14.65;7.53;;;;;;;16.22;94.92;99914.44;10397588;28;20041;-73
2022/10/14 11:39:12;;;;;;;9.93;7.63;;;;;;;16.21;95.62;99906.53;10415851;28;20048;-73
2022/10/14 11:44:19;;;;;;;9.38;7.10;;;;;;;16.10;97.91;99913.09;10408970;28;20049;-72
2022/10/14 11:49:25;;;;;;;19.20;7.22;;;;;;;16.11;97.76;99904.03;10422606;28;20056;-73
2022/10/14 11:54:41;;;;;;;9.02;5.65;;;;;;;16.08;95.93;99888.28;10422434;28;20071;-72
2022/10/14 12:00:07;;;;;;;7.78;5.57;;;;;;;16.37;95.44;99884.22;10427850;28;20044;-71
2022/10/14 12:05:30;;;;;;;13.13;6.80;;;;;;;16.39;92.43;99879.50;10376931;28;20045;-72
2022/10/14 12:10:37;;;;;;;11.35;10.18;;;;;;;16.34;93.33;99876.50;10385935;28;20052;-71
2022/10/14 12:15:42;;;;;;;12.77;11.48;;;;;;;16.30;93.58;99865.25;10378822;28;20049;-73
2022/10/14 12:20:43;;;;;;;17.77;15.95;;;;;;;16.20;93.79;99870.81;10381006;28;20045;-74
2022/10/14 12:25:57;;;;;;;8.70;7.45;;;;;;;16.11;93.51;99865.59;10381382;28;20847;-71
2022/10/14 12:31:37;;;;;;;7.95;7.03;;;;;;;15.97;95.33;99859.06;10382445;28;20053;-72
2022/10/14 12:36:43;;;;;;;6.95;5.68;;;;;;;15.81;97.98;99860.75;10396597;28;20060;-72
2022/10/14 12:42:00;;;;;;;5.95;5.25;;;;;;;15.84;99.95;99844.31;10391075;28;20677;-71
2022/10/14 12:47:03;;;;;;;7.05;5.70;;;;;;;15.77;99.63;99848.63;10386045;28;20042;-73
2022/10/14 12:52:07;;;;;;;6.82;5.25;;;;;;;15.63;100.00;99841.28;10381343;28;20621;-73
2022/10/14 12:57:28;;;;;;;6.65;5.68;;;;;;;15.45;100.00;99834.19;10380317;28;20054;-72
2022/10/14 13:02:36;;;;;;;6.63;5.05;;;;;;;15.43;100.00;99840.72;10379513;28;20241;-71
2022/10/14 13:07:41;;;;;;;8.02;6.53;;;;;;;15.29;100.00;99842.22;10375939;28;20493;-74
2022/10/14 13:12:43;;;;;;;8.20;5.68;;;;;;;15.27;100.00;99825.47;10378795;28;20052;-73
2022/10/14 13:17:45;;;;;;;6.85;5.20;;;;;;;15.29;100.00;99820.75;10392231;28;20045;-73
2022/10/14 13:22:48;;;;;;;6.72;5.35;;;;;;;15.13;100.00;99817.03;10422643;28;20056;-75
2022/10/14 13:28:14;;;;;;;5.47;4.88;;;;;;;15.23;100.00;99810.69;10439850;28;21012;-73
2022/10/14 13:33:36;;;;;;;9.43;5.72;;;;;;;15.35;100.00;99806.69;10444864;28;20111;-75
2022/10/14 13:38:44;;;;;;;5.28;4.65;;;;;;;15.33;100.00;99800.66;10427392;28;20055;-73
2022/10/14 13:43:45;;;;;;;6.30;4.82;;;;;;;15.45;100.00;99799.31;10471625;28;20053;-74
2022/10/14 13:48:53;;;;;;;8.38;4.95;;;;;;;15.49;100.00;99792.63;10424824;28;20076;-73
2022/10/14 13:53:57;;;;;;;6.80;4.47;;;;;;;15.45;100.00;99775.19;10436284;28;20044;-72
2022/10/14 13:58:59;;;;;;;5.00;4.05;;;;;;;15.49;100.00;99771.19;10430185;28;20041;-72
2022/10/14 14:04:01;;;;;;;4.43;4.00;;;;;;;15.52;100.00;99764.63;10438910;28;20056;-72
2022/10/14 14:09:04;;;;;;;8.32;4.70;;;;;;;15.37;100.00;99757.25;10446065;28;20056;-72
2022/10/14 14:14:29;;;;;;;6.40;4.28;;;;;;;15.28;100.00;99760.09;10421711;28;20048;-73
2022/10/14 14:19:36;;;;;;;7.20;4.13;;;;;;;15.25;100.00;99753.19;10438044;28;20064;-73
2022/10/14 14:24:37;;;;;;;4.90;4.30;;;;;;;15.29;100.00;99751.03;10417594;28;20051;-74
2022/10/14 14:29:42;;;;;;;9.77;8.68;;;;;;;15.36;100.00;99734.13;10400457;28;20053;-74
2022/10/14 14:34:46;;;;;;;32.50;21.45;;;;;;;15.38;100.00;99736.63;10399597;28;20254;-74
2022/10/14 14:40:06;;;;;;;39.15;27.40;;;;;;;15.51;100.00;99731.59;10401407;28;20041;-73
2022/10/14 14:45:18;;;;;;;44.63;29.85;;;;;;;15.59;100.00;99713.84;10394767;28;20056;-74
2022/10/14 14:50:27;;;;;;;24.27;14.88;;;;;;;15.58;100.00;99709.47;10400396;28;20041;-74
2022/10/14 14:55:46;;;;;;;7.75;6.22;;;;;;;15.61;100.00;99711.81;10401017;28;20045;-73
2022/10/14 15:00:50;;;;;;;7.97;6.05;;;;;;;15.53;100.00;99713.47;10404285;28;20075;-74
2022/10/14 15:06:03;;;;;;;26.93;17.47;;;;;;;15.53;100.00;99708.13;10403151;28;20052;-74
2022/10/14 15:11:05;;;;;;;20.48;15.43;;;;;;;15.54;100.00;99696.41;10390050;28;20272;-73
2022/10/14 15:16:06;;;;;;;10.27;9.07;;;;;;;15.59;100.00;99695.88;10393862;28;20076;-73
2022/10/14 15:21:08;;;;;;;42.00;27.15;;;;;;;15.64;100.00;99700.75;10415046;28;20132;-73
2022/10/14 15:26:23;;;;;;;40.58;27.52;;;;;;;15.63;100.00;99699.09;10407709;28;20053;-74
2022/10/14 15:31:24;;;;;;;23.63;20.70;;;;;;;15.52;100.00;99698.41;10386164;28;20133;-74
2022/10/14 15:36:29;;;;;;;10.00;8.82;;;;;;;15.54;100.00;99679.47;10405483;28;20060;-74
2022/10/14 15:41:31;;;;;;;24.33;21.95;;;;;;;15.42;100.00;99672.75;10381962;28;20442;-72
2022/10/14 15:51:55;;;;;;;8.50;6.88;;;;;;;15.49;100.00;99674.63;10372147;28;20519;-76
2022/10/14 15:56:57;;;;;;;10.32;8.93;;;;;;;15.62;100.00;99667.88;10380166;28;20053;-74
2022/10/14 16:01:58;;;;;;;6.57;5.88;;;;;;;15.61;100.00;99660.84;10376647;28;20045;-73
2022/10/14 16:06:59;;;;;;;7.03;5.22;;;;;;;15.54;100.00;99664.22;10372778;28;20049;-71
2022/10/14 16:12:01;;;;;;;8.70;7.05;;;;;;;15.52;100.00;99671.59;10372085;28;20049;-71
2022/10/14 16:17:02;;;;;;;7.32;6.63;;;;;;;15.52;100.00;99644.78;10372358;28;20772;-72
2022/10/14 16:22:03;;;;;;;8.95;8.13;;;;;;;15.56;100.00;99647.94;10371339;28;20037;-72
2022/10/14 16:27:05;;;;;;;28.92;24.55;;;;;;;15.56;100.00;99651.44;10370255;28;20049;-74
2022/10/14 16:32:08;;;;;;;15.50;14.00;;;;;;;15.56;100.00;99640.72;10372566;28;20052;-74
2022/10/14 16:37:10;;;;;;;13.30;11.93;;;;;;;15.64;100.00;99644.41;10388769;28;20053;-73
2022/10/14 16:42:11;;;;;;;12.02;9.43;;;;;;;15.60;100.00;99635.00;10368481;28;20049;-73
2022/10/14 16:47:15;;;;;;;8.90;8.00;;;;;;;15.57;100.00;99630.84;10393426;28;20097;-71
2022/10/14 16:52:18;;;;;;;13.95;12.60;;;;;;;15.61;100.00;99632.16;10420303;28;20059;-73
2022/10/14 16:57:19;;;;;;;10.23;9.32;;;;;;;15.59;100.00;99631.50;10414002;28;20048;-72
2022/10/14 17:02:21;;;;;;;9.57;8.68;;;;;;;15.58;100.00;99623.63;10424397;28;20060;-73
2022/10/14 17:07:23;;;;;;;8.38;7.45;;;;;;;15.55;100.00;99640.88;10421198;28;20434;-71
2022/10/14 17:12:25;;;;;;;8.68;7.75;;;;;;;15.57;100.00;99644.25;10423029;28;20053;-72
2022/10/14 17:17:26;;;;;;;7.63;6.85;;;;;;;15.56;100.00;99651.44;10422977;28;20804;-72
2022/10/14 17:22:28;;;;;;;9.88;8.10;;;;;;;15.55;100.00;99655.16;10406653;28;20045;-74
2022/10/14 17:27:29;;;;;;;10.15;9.15;;;;;;;15.55;100.00;99641.75;10380816;28;20045;-73
2022/10/14 17:32:31;;;;;;;8.43;7.60;;;;;;;15.51;100.00;99640.41;10377888;28;20061;-75
2022/10/14 17:37:32;;;;;;;12.07;9.02;;;;;;;15.56;100.00;99648.75;10379743;28;20563;-74
2022/10/14 17:42:33;;;;;;;9.40;8.55;;;;;;;15.63;100.00;99643.56;10421935;28;20412;-74
2022/10/14 17:47:34;;;;;;;9.00;8.10;;;;;;;15.68;100.00;99637.69;10405269;28;20053;-75
2022/10/14 17:52:36;;;;;;;10.18;9.18;;;;;;;15.61;100.00;99647.44;10395775;28;20057;-73
2022/10/14 17:57:37;;;;;;;10.00;8.02;;;;;;;15.58;100.00;99645.91;10377541;28;20124;-73
2022/10/14 18:02:38;;;;;;;9.40;8.15;;;;;;;15.53;100.00;99638.38;10376906;28;20048;-71
2022/10/14 18:07:40;;;;;;;9.55;8.75;;;;;;;15.45;100.00;99625.00;10378658;28;20051;-73
2022/10/14 18:12:41;;;;;;;9.15;8.32;;;;;;;15.48;100.00;99634.56;10380108;28;20053;-76
2022/10/14 18:17:42;;;;;;;8.63;7.75;;;;;;;15.42;100.00;99635.22;10383643;28;20679;-74
2022/10/14 18:22:44;;;;;;;9.50;7.80;;;;;;;15.44;100.00;99623.31;10402662;28;20483;-75
2022/10/14 18:27:45;;;;;;;7.40;6.57;;;;;;;15.48;100.00;99624.66;10421533;28;20052;-75
2022/10/14 18:32:46;;;;;;;8.63;7.80;;;;;;;15.47;100.00;99606.88;10421707;28;20051;-73
2022/10/14 18:37:48;;;;;;;8.60;7.90;;;;;;;15.48;100.00;99603.19;10419449;28;20045;-74
2022/10/14 18:42:49;;;;;;;8.85;7.22;;;;;;;15.54;100.00;99615.94;10385404;28;20498;-73
2022/10/14 18:47:51;;;;;;;7.20;6.50;;;;;;;15.60;100.00;99594.78;10379520;28;20064;-72
2022/10/14 18:52:54;;;;;;;8.52;7.55;;;;;;;15.57;100.00;99585.25;10371064;28;20049;-74
2022/10/14 18:57:56;;;;;;;7.85;7.05;;;;;;;15.50;100.00;99581.56;10373936;28;20064;-74
2022/10/14 19:02:57;;;;;;;7.35;6.68;;;;;;;15.55;100.00;99587.25;10376502;28;20693;-77
2022/10/14 19:07:59;;;;;;;8.85;7.22;;;;;;;15.55;100.00;99590.78;10375669;28;20049;-73
2022/10/14 19:13:02;;;;;;;9.98;7.68;;;;;;;15.53;100.00;99576.69;10376197;28;20120;-73
2022/10/14 19:18:04;;;;;;;7.05;6.35;;;;;;;15.46;100.00;99577.56;10375567;28;20057;-72
2022/10/14 19:23:05;;;;;;;8.70;7.80;;;;;;;15.37;100.00;99568.69;10376013;28;20049;-73
2022/10/14 19:28:08;;;;;;;7.95;7.18;;;;;;;15.30;100.00;99554.31;10356942;28;20351;-71
2022/10/14 19:33:09;;;;;;;7.75;6.70;;;;;;;15.32;100.00;99550.44;10375181;28;20040;-73
2022/10/14 19:38:11;;;;;;;8.15;6.20;;;;;;;15.33;100.00;99548.59;10377585;28;20053;-72
2022/10/14 19:43:12;;;;;;;8.35;7.18;;;;;;;15.33;100.00;99551.28;10370370;28;20057;-72
2022/10/14 19:48:13;;;;;;;6.50;5.03;;;;;;;15.34;100.00;99552.94;10376323;28;20056;-74
2022/10/14 19:53:14;;;;;;;5.82;5.25;;;;;;;15.31;100.00;99555.97;10374740;28;20748;-73
2022/10/14 19:58:16;;;;;;;6.03;5.40;;;;;;;15.28;100.00;99551.81;10376772;28;20681;-71
2022/10/14 20:03:17;;;;;;;6.25;5.65;;;;;;;15.29;100.00;99550.78;10371471;28;20052;-75
2022/10/14 20:08:18;;;;;;;5.07;4.57;;;;;;;15.25;100.00;99541.41;10372446;28;20056;-75
2022/10/14 20:13:20;;;;;;;2.38;2.17;;;;;;;15.25;100.00;99548.63;10369973;28;20057;-73
2022/10/14 20:18:22;;;;;;;3.25;2.30;;;;;;;15.33;100.00;99540.56;10372367;28;20239;-71
2022/10/14 20:23:24;;;;;;;2.38;2.17;;;;;;;15.37;100.00;99545.41;10370637;28;20063;-72
2022/10/14 20:28:25;;;;;;;3.28;2.97;;;;;;;15.38;100.00;99551.59;10373395;28;21438;-72
2022/10/14 20:33:30;;;;;;;4.47;2.90;;;;;;;15.28;100.00;99537.53;10370164;28;20527;-71
2022/10/14 20:38:32;;;;;;;5.40;3.65;;;;;;;15.23;100.00;99535.38;10372583;28;20059;-70
2022/10/14 20:43:33;;;;;;;3.20;2.88;;;;;;;15.19;100.00;99524.19;10374744;28;20724;-70
2022/10/14 20:48:38;;;;;;;3.28;2.95;;;;;;;15.24;100.00;99517.44;10381224;28;20049;-73
2022/10/14 20:53:39;;;;;;;;;;;;;;;15.27;100.00;99514.44;10406845;28;20545;-74
2022/10/14 20:58:41;;;;;;;2.63;2.10;;;;;;;15.20;100.00;99509.75;10412751;28;19932;-72
2022/10/14 21:03:45;;;;;;;2.63;1.90;;;;;;;15.09;100.00;99491.34;10400156;28;20053;-72
2022/10/14 21:08:50;;;;;;;2.03;1.50;;;;;;;15.01;100.00;99494.03;10391229;28;20898;-72
2022/10/14 21:13:54;;;;;;;1.40;1.05;;;;;;;15.07;100.00;99481.81;10389376;28;20060;-72
2022/10/14 21:19:04;;;;;;;1.00;0.80;;;;;;;15.13;100.00;99481.97;10381573;28;20057;-72
2022/10/14 21:24:07;;;;;;;3.05;1.40;;;;;;;15.19;100.00;99475.06;10395900;28;20056;-72
2022/10/14 21:29:09;;;;;;;1.73;1.60;;;;;;;15.16;100.00;99478.09;10394863;28;20046;-71
2022/10/14 21:34:11;;;;;;;2.65;2.00;;;;;;;15.19;100.00;99475.91;10363769;28;1038365;-73
2022/10/14 21:39:14;;;;;;;2.25;2.03;;;;;;;15.22;100.00;99465.84;10394175;28;20045;-73
2022/10/14 21:44:18;;;;;;;2.70;2.35;;;;;;;15.11;100.00;99457.16;10393348;28;20052;-72
2022/10/14 21:49:19;;;;;;;3.20;2.90;;;;;;;15.20;100.00;99461.50;10399921;28;20059;-73
2022/10/14 21:54:23;;;;;;;3.75;3.45;;;;;;;15.13;100.00;99449.81;10397528;28;20567;-71
2022/10/14 21:59:24;;;;;;;4.37;3.20;;;;;;;15.22;100.00;99455.13;10394643;28;20045;-71
2022/10/14 22:04:26;;;;;;;4.57;4.18;;;;;;;15.26;100.00;99448.41;10398114;28;20056;-71
2022/10/14 22:09:27;;;;;;;4.40;4.00;;;;;;;15.17;100.00;99443.06;10395373;28;20049;-72
2022/10/14 22:14:28;;;;;;;6.13;4.65;;;;;;;15.18;100.00;99431.34;10396735;28;20659;-71
2022/10/14 22:19:29;;;;;;;4.88;4.47;;;;;;;15.20;100.00;99429.31;10396447;28;20460;-71
2022/10/14 22:24:31;;;;;;;5.28;4.88;;;;;;;15.26;100.00;99426.97;10398396;28;20049;-71
2022/10/14 22:29:32;;;;;;;5.35;4.95;;;;;;;15.19;100.00;99411.59;10400957;28;20053;-73
2022/10/14 22:34:34;;;;;;;5.95;5.35;;;;;;;15.22;100.00;99415.75;10411875;28;20145;-72
2022/10/14 22:39:35;;;;;;;5.57;5.10;;;;;;;15.38;100.00;99414.84;10395183;28;20049;-72
2022/10/14 22:44:36;;;;;;;5.65;5.07;;;;;;;15.48;100.00;99417.31;10393237;28;20041;-73
2022/10/14 22:49:38;;;;;;;6.88;6.20;;;;;;;15.38;100.00;99406.81;10392171;28;20061;-73
2022/10/14 22:54:39;;;;;;;6.75;5.30;;;;;;;15.31;100.00;99412.03;10393231;28;20041;-71
2022/10/14 22:59:40;;;;;;;5.43;5.03;;;;;;;15.30;100.00;99399.63;10394795;28;20128;-72
2022/10/14 23:04:41;;;;;;;4.30;4.00;;;;;;;15.34;100.00;99389.38;10384622;28;20049;-72
2022/10/14 23:09:43;;;;;;;5.15;4.50;;;;;;;15.33;100.00;99396.59;10392666;28;20044;-73
2022/10/14 23:14:44;;;;;;;4.55;4.15;;;;;;;15.37;100.00;99397.94;10390932;28;20048;-72